createdAt,value
2022-10-23T00:00:05.650Z,41.91
2022-10-23T00:01:05.618Z,40.71
2022-10-23T00:02:05.680Z,43.94
2022-10-23T00:03:05.581Z,46.37
2022-10-23T00:04:05.575Z,40.43
2022-10-23T00:05:05.562Z,40.64
2022-10-23T00:06:05.583Z,43.00
2022-10-23T00:07:05.561Z,45.85
2022-10-23T00:08:05.544Z,39.35
2022-10-23T00:09:05.535Z,44.25
2022-10-23T00:10:05.535Z,41.46
2022-10-23T00:11:05.545Z,43.57
2022-10-23T00:12:05.517Z,43.65
2022-10-23T00:13:05.505Z,43.79
2022-10-23T00:14:05.503Z,44.69
2022-10-23T00:15:05.527Z,43.87
2022-10-23T00:16:05.511Z,44.07
2022-10-23T00:17:05.482Z,41.03
2022-10-23T00:18:05.476Z,40.64
2022-10-23T00:19:05.735Z,45.17
2022-10-23T00:20:05.454Z,39.12
2022-10-23T00:21:05.480Z,39.45
2022-10-23T00:22:05.435Z,43.69
2022-10-23T00:23:05.434Z,40.16
2022-10-23T00:24:05.516Z,42.11
2022-10-23T00:25:05.415Z,44.05
2022-10-23T00:26:05.441Z,42.57
2022-10-23T00:27:05.401Z,41.80
2022-10-23T00:28:05.382Z,53.18
2022-10-23T00:29:05.389Z,59.18
2022-10-23T00:30:05.374Z,54.73
2022-10-23T00:31:05.395Z,55.23
2022-10-23T00:32:05.356Z,55.25
2022-10-23T00:33:05.348Z,54.16
2022-10-23T00:34:05.354Z,55.10
2022-10-23T00:35:05.341Z,43.08
2022-10-23T00:36:05.356Z,41.23
2022-10-23T00:37:05.317Z,41.16
2022-10-23T00:38:05.343Z,40.67
2022-10-23T00:39:05.311Z,45.76
2022-10-23T00:40:05.310Z,52.45
2022-10-23T00:41:05.328Z,43.47
2022-10-23T00:42:05.281Z,41.70
2022-10-23T00:43:05.282Z,43.68
2022-10-23T00:44:05.262Z,40.83
2022-10-23T00:45:05.259Z,40.16
2022-10-23T00:46:05.284Z,39.93
2022-10-23T00:47:05.238Z,42.43
2022-10-23T00:48:05.232Z,43.11
2022-10-23T00:49:05.302Z,46.17
2022-10-23T00:50:05.224Z,43.95
2022-10-23T00:51:05.232Z,39.68
2022-10-23T00:52:05.245Z,42.62
2022-10-23T00:53:05.184Z,39.88
2022-10-23T00:54:23.436Z,44.91
2022-10-23T00:55:07.176Z,40.02
2022-10-23T00:56:05.200Z,42.07
2022-10-23T00:57:05.167Z,39.95
2022-10-23T00:58:05.154Z,46.53
2022-10-23T00:59:05.154Z,39.96
2022-10-23T01:00:05.141Z,42.25
2022-10-23T01:01:05.247Z,42.11
2022-10-23T01:02:05.247Z,42.04
2022-10-23T01:03:05.130Z,45.44
2022-10-23T01:04:05.108Z,44.03
2022-10-23T01:05:05.118Z,43.84
2022-10-23T01:06:05.122Z,43.86
2022-10-23T01:07:05.091Z,43.54
2022-10-23T01:08:05.077Z,45.15
2022-10-23T01:09:05.075Z,39.92
2022-10-23T01:10:05.065Z,40.11
2022-10-23T01:11:05.084Z,44.44
2022-10-23T01:12:05.068Z,41.71
2022-10-23T01:13:05.050Z,40.91
2022-10-23T01:14:05.039Z,40.74
2022-10-23T01:15:05.028Z,40.25
2022-10-23T01:16:05.049Z,49.58
2022-10-23T01:17:05.007Z,52.13
2022-10-23T01:18:04.998Z,49.69
2022-10-23T01:19:04.994Z,42.39
2022-10-23T01:20:04.982Z,40.86
2022-10-23T01:21:05.001Z,43.97
2022-10-23T01:22:05.002Z,46.82
2022-10-23T01:23:04.963Z,43.37
2022-10-23T01:24:04.951Z,40.31
2022-10-23T01:25:04.957Z,42.18
2022-10-23T01:26:04.975Z,47.56
2022-10-23T01:27:04.949Z,42.97
2022-10-23T01:28:04.919Z,47.06
2022-10-23T01:29:04.918Z,46.94
2022-10-23T01:30:04.911Z,52.73
2022-10-23T01:31:04.933Z,50.30
2022-10-23T01:32:04.889Z,54.44
2022-10-23T01:33:04.888Z,55.67
2022-10-23T01:34:04.872Z,60.41
2022-10-23T01:35:04.898Z,54.78
2022-10-23T01:36:04.862Z,53.95
2022-10-23T01:37:04.875Z,40.96
2022-10-23T01:38:04.868Z,42.08
2022-10-23T01:40:04.827Z,43.72
2022-10-23T01:41:04.825Z,39.07
2022-10-23T01:42:04.844Z,46.28
2022-10-23T01:43:04.801Z,42.94
2022-10-23T01:44:04.872Z,51.15
2022-10-23T01:45:04.792Z,41.74
2022-10-23T01:46:04.787Z,42.92
2022-10-23T01:47:04.800Z,42.48
2022-10-23T01:48:04.821Z,39.71
2022-10-23T01:49:04.764Z,39.74
2022-10-23T01:50:04.752Z,41.99
2022-10-23T01:51:04.753Z,43.37
2022-10-23T01:52:04.784Z,43.69
2022-10-23T01:53:04.721Z,45.53
2022-10-23T01:54:04.731Z,57.04
2022-10-23T01:55:04.712Z,42.61
2022-10-23T01:56:04.730Z,39.80
2022-10-23T01:57:04.725Z,41.64
2022-10-23T01:58:04.684Z,42.26
2022-10-23T01:59:04.671Z,44.16
2022-10-23T02:00:04.668Z,39.92
2022-10-23T02:01:04.715Z,42.43
2022-10-23T02:02:04.807Z,44.03
2022-10-23T02:03:04.657Z,42.52
2022-10-23T02:04:04.664Z,40.26
2022-10-23T02:05:04.636Z,43.17
2022-10-23T02:06:04.621Z,46.30
2022-10-23T02:07:04.651Z,40.94
2022-10-23T02:08:04.607Z,49.14
2022-10-23T02:09:04.610Z,43.88
2022-10-23T02:10:04.595Z,39.93
2022-10-23T02:11:04.613Z,39.99
2022-10-23T02:12:04.608Z,43.47
2022-10-23T02:13:04.586Z,43.01
2022-10-23T02:14:04.567Z,43.43
2022-10-23T02:15:04.568Z,44.92
2022-10-23T02:16:04.547Z,45.45
2022-10-23T02:17:04.580Z,39.64
2022-10-23T02:18:04.551Z,39.53
2022-10-23T02:19:04.548Z,39.44
2022-10-23T02:20:04.528Z,39.43
2022-10-23T02:21:04.532Z,39.42
2022-10-23T02:22:04.539Z,39.47
2022-10-23T02:23:04.497Z,39.44
2022-10-23T02:24:04.489Z,39.31
2022-10-23T02:25:04.481Z,39.40
2022-10-23T02:26:04.475Z,42.21
2022-10-23T02:27:04.459Z,42.92
2022-10-23T02:28:04.490Z,39.65
2022-10-23T02:30:04.439Z,42.06
2022-10-23T02:31:04.432Z,42.05
2022-10-23T02:32:04.428Z,42.57
2022-10-23T02:33:04.441Z,39.37
2022-10-23T02:34:04.405Z,41.85
2022-10-23T02:35:04.412Z,49.77
2022-10-23T02:36:04.393Z,39.43
2022-10-23T02:37:04.383Z,42.06
2022-10-23T02:38:04.652Z,54.45
2022-10-23T02:39:04.380Z,40.27
2022-10-23T02:40:04.375Z,49.81
2022-10-23T02:41:04.360Z,47.07
2022-10-23T02:42:04.344Z,50.67
2022-10-23T02:43:04.365Z,41.58
2022-10-23T02:44:04.326Z,41.81
2022-10-23T02:45:04.318Z,39.93
2022-10-23T02:46:04.315Z,43.12
2022-10-23T02:47:04.313Z,49.08
2022-10-23T02:48:04.315Z,39.67
2022-10-23T02:49:04.290Z,39.56
2022-10-23T02:50:04.281Z,45.50
2022-10-23T02:51:04.265Z,50.96
2022-10-23T02:52:04.258Z,49.45
2022-10-23T02:53:04.283Z,47.00
2022-10-23T02:54:04.249Z,50.64
2022-10-23T02:55:04.241Z,48.53
2022-10-23T02:56:04.232Z,54.20
2022-10-23T02:57:04.256Z,54.04
2022-10-23T02:58:04.255Z,55.65
2022-10-23T02:59:04.209Z,55.29
2022-10-23T03:00:04.210Z,54.83
2022-10-23T03:01:04.234Z,54.77
2022-10-23T03:02:04.312Z,54.00
2022-10-23T03:03:04.207Z,54.30
2022-10-23T03:04:04.177Z,54.21
2022-10-23T03:05:04.161Z,50.47
2022-10-23T03:06:04.156Z,41.98
2022-10-23T03:07:04.146Z,39.03
2022-10-23T03:08:04.170Z,56.43
2022-10-23T03:09:04.156Z,41.32
2022-10-23T03:10:04.121Z,38.42
2022-10-23T03:11:04.115Z,39.93
2022-10-23T03:12:04.103Z,39.80
2022-10-23T03:13:04.133Z,39.68
2022-10-23T03:14:04.092Z,47.97
2022-10-23T03:15:04.083Z,42.45
2022-10-23T03:16:04.080Z,40.09
2022-10-23T03:17:04.067Z,43.93
2022-10-23T03:18:04.086Z,44.12
2022-10-23T03:19:04.085Z,44.46
2022-10-23T03:20:04.069Z,43.66
2022-10-23T03:21:04.046Z,53.39
2022-10-23T03:22:04.041Z,43.23
2022-10-23T03:23:04.044Z,46.59
2022-10-23T03:24:04.016Z,44.43
2022-10-23T03:25:04.004Z,44.00
2022-10-23T03:26:03.999Z,39.10
2022-10-23T03:27:03.994Z,44.67
2022-10-23T03:28:04.017Z,38.40
2022-10-23T03:29:03.974Z,48.56
2022-10-23T03:30:03.966Z,44.71
2022-10-23T03:31:03.959Z,48.96
2022-10-23T03:32:03.956Z,44.63
2022-10-23T03:33:03.979Z,48.23
2022-10-23T03:34:06.291Z,42.04
2022-10-23T03:35:03.929Z,44.14
2022-10-23T03:36:03.917Z,45.78
2022-10-23T03:37:03.908Z,45.54
2022-10-23T03:38:03.943Z,44.94
2022-10-23T03:39:03.907Z,39.43
2022-10-23T03:40:03.964Z,39.37
2022-10-23T03:41:03.886Z,43.53
2022-10-23T03:42:03.873Z,39.27
2022-10-23T03:43:03.917Z,43.09
2022-10-23T03:45:03.872Z,39.57
2022-10-23T03:46:03.848Z,41.93
2022-10-23T03:47:03.872Z,42.67
2022-10-23T03:48:03.900Z,47.16
2022-10-23T03:49:03.825Z,41.87
2022-10-23T03:50:03.813Z,43.65
2022-10-23T03:51:03.813Z,41.92
2022-10-23T03:52:03.804Z,41.42
2022-10-23T03:53:03.840Z,41.79
2022-10-23T03:54:03.793Z,41.82
2022-10-23T03:55:03.793Z,41.68
2022-10-23T03:56:03.769Z,40.54
2022-10-23T03:57:04.780Z,44.64
2022-10-23T03:58:03.753Z,43.49
2022-10-23T03:59:03.777Z,45.79
2022-10-23T04:00:03.739Z,45.42
2022-10-23T04:01:03.838Z,41.28
2022-10-23T04:02:03.857Z,56.16
2022-10-23T04:03:03.715Z,44.79
2022-10-23T04:04:03.735Z,45.92
2022-10-23T04:05:03.711Z,42.20
2022-10-23T04:06:03.706Z,46.56
2022-10-23T04:07:03.691Z,41.84
2022-10-23T04:08:03.681Z,45.06
2022-10-23T04:09:03.721Z,39.90
2022-10-23T04:10:03.668Z,45.49
2022-10-23T04:11:03.663Z,41.42
2022-10-23T04:12:03.652Z,45.31
2022-10-23T04:13:03.653Z,49.04
2022-10-23T04:14:03.670Z,55.47
2022-10-23T04:15:03.639Z,54.75
2022-10-23T04:16:03.615Z,50.91
2022-10-23T04:17:03.623Z,39.01
2022-10-23T04:18:03.608Z,40.77
2022-10-23T04:19:03.622Z,42.23
2022-10-23T04:20:03.598Z,43.25
2022-10-23T04:21:03.618Z,44.96
2022-10-23T04:22:03.572Z,44.28
2022-10-23T04:23:03.579Z,46.67
2022-10-23T04:24:03.594Z,50.03
2022-10-23T04:25:03.564Z,48.21
2022-10-23T04:26:03.566Z,42.16
2022-10-23T04:27:03.557Z,44.08
2022-10-23T04:28:03.538Z,46.30
2022-10-23T04:29:03.565Z,39.67
2022-10-23T04:30:03.521Z,47.67
2022-10-23T04:31:03.509Z,46.15
2022-10-23T04:32:03.502Z,47.52
2022-10-23T04:33:03.510Z,42.10
2022-10-23T04:34:03.548Z,41.71
2022-10-23T04:35:04.303Z,42.25
2022-10-23T04:36:03.477Z,43.61
2022-10-23T04:37:03.464Z,40.07
2022-10-23T04:38:03.460Z,47.81
2022-10-23T04:39:03.481Z,43.05
2022-10-23T04:40:03.448Z,54.95
2022-10-23T04:41:03.485Z,54.87
2022-10-23T04:42:03.446Z,54.79
2022-10-23T04:43:03.415Z,55.30
2022-10-23T04:44:03.440Z,55.91
2022-10-23T04:45:03.408Z,54.65
2022-10-23T04:46:03.395Z,55.39
2022-10-23T04:47:03.390Z,54.74
2022-10-23T04:48:03.386Z,54.31
2022-10-23T04:49:03.405Z,53.92
2022-10-23T04:50:03.358Z,45.15
2022-10-23T04:51:03.376Z,39.14
2022-10-23T04:52:03.351Z,42.60
2022-10-23T04:53:03.338Z,59.30
2022-10-23T04:54:03.363Z,51.61
2022-10-23T04:55:03.337Z,45.77
2022-10-23T04:56:03.321Z,43.99
2022-10-23T04:57:03.331Z,44.47
2022-10-23T04:58:03.315Z,45.76
2022-10-23T04:59:03.322Z,40.57
2022-10-23T05:00:03.309Z,43.55
2022-10-23T05:01:03.363Z,44.44
2022-10-23T05:02:03.270Z,43.05
2022-10-23T05:03:03.266Z,47.25
2022-10-23T05:04:03.280Z,43.11
2022-10-23T05:05:03.248Z,44.41
2022-10-23T05:06:03.250Z,43.15
2022-10-23T05:07:03.237Z,45.00
2022-10-23T05:08:03.234Z,43.55
2022-10-23T05:09:03.252Z,42.66
2022-10-23T05:10:03.214Z,44.52
2022-10-23T05:11:03.199Z,48.66
2022-10-23T05:12:03.196Z,45.65
2022-10-23T05:13:03.196Z,56.52
2022-10-23T05:14:03.205Z,45.99
2022-10-23T05:15:03.189Z,44.71
2022-10-23T05:16:03.170Z,46.76
2022-10-23T05:17:03.153Z,44.97
2022-10-23T05:18:03.149Z,42.46
2022-10-23T05:19:03.170Z,41.88
2022-10-23T05:20:03.144Z,44.39
2022-10-23T05:21:03.133Z,43.94
2022-10-23T05:22:03.127Z,42.39
2022-10-23T05:23:03.110Z,45.81
2022-10-23T05:24:03.147Z,60.24
2022-10-23T05:25:03.096Z,45.46
2022-10-23T05:26:03.093Z,43.29
2022-10-23T05:27:03.096Z,47.04
2022-10-23T05:28:03.069Z,44.44
2022-10-23T05:29:03.085Z,54.54
2022-10-23T05:30:03.054Z,52.21
2022-10-23T05:31:03.045Z,48.65
2022-10-23T05:32:03.032Z,42.57
2022-10-23T05:33:04.029Z,47.12
2022-10-23T05:34:03.054Z,43.83
2022-10-23T05:35:03.024Z,44.28
2022-10-23T05:36:03.006Z,55.01
2022-10-23T05:37:03.015Z,43.41
2022-10-23T05:38:03.011Z,40.26
2022-10-23T05:39:03.013Z,44.72
2022-10-23T05:40:02.985Z,39.86
2022-10-23T05:41:02.971Z,42.84
2022-10-23T05:42:02.962Z,46.10
2022-10-23T05:43:02.957Z,43.91
2022-10-23T05:44:02.972Z,51.39
2022-10-23T05:45:02.941Z,50.61
2022-10-23T05:46:02.920Z,45.84
2022-10-23T05:47:03.949Z,41.75
2022-10-23T05:48:11.041Z,43.13
2022-10-23T05:49:04.938Z,43.66
2022-10-23T05:50:02.901Z,47.19
2022-10-23T05:51:02.893Z,42.68
2022-10-23T05:52:02.886Z,40.47
2022-10-23T05:53:02.880Z,49.16
2022-10-23T05:54:02.943Z,42.49
2022-10-23T05:55:02.861Z,45.29
2022-10-23T05:56:02.851Z,53.07
2022-10-23T05:57:02.867Z,54.76
2022-10-23T05:58:02.863Z,54.92
2022-10-23T05:59:02.839Z,55.53
2022-10-23T06:00:02.909Z,56.21
2022-10-23T06:01:02.875Z,55.36
2022-10-23T06:02:02.971Z,54.72
2022-10-23T06:03:02.800Z,54.51
2022-10-23T06:04:02.849Z,54.44
2022-10-23T06:05:02.817Z,54.92
2022-10-23T06:06:02.778Z,55.30
2022-10-23T06:07:02.780Z,55.08
2022-10-23T06:08:02.823Z,47.80
2022-10-23T06:09:02.750Z,46.27
2022-10-23T06:10:02.778Z,46.71
2022-10-23T06:11:02.728Z,57.55
2022-10-23T06:12:03.724Z,48.29
2022-10-23T06:13:02.717Z,48.50
2022-10-23T06:14:02.720Z,40.16
2022-10-23T06:15:02.732Z,46.20
2022-10-23T06:16:02.697Z,51.06
2022-10-23T06:17:02.693Z,43.16
2022-10-23T06:18:02.686Z,44.55
2022-10-23T06:19:02.680Z,51.61
2022-10-23T06:20:02.695Z,40.50
2022-10-23T06:21:02.666Z,46.51
2022-10-23T06:22:02.671Z,46.79
2022-10-23T06:23:02.658Z,42.24
2022-10-23T06:24:02.642Z,44.47
2022-10-23T06:25:02.662Z,47.76
2022-10-23T06:26:02.627Z,40.47
2022-10-23T06:27:02.616Z,48.55
2022-10-23T06:28:02.613Z,42.85
2022-10-23T06:29:02.603Z,48.02
2022-10-23T06:30:02.615Z,45.53
2022-10-23T06:31:02.594Z,46.78
2022-10-23T06:32:03.659Z,49.77
2022-10-23T06:33:04.614Z,50.18
2022-10-23T06:34:02.562Z,45.36
2022-10-23T06:35:02.577Z,53.16
2022-10-23T06:36:02.552Z,48.01
2022-10-23T06:37:02.525Z,46.10
2022-10-23T06:38:03.549Z,52.23
2022-10-23T06:39:02.539Z,42.67
2022-10-23T06:40:02.536Z,47.64
2022-10-23T06:41:02.504Z,49.50
2022-10-23T06:42:02.503Z,50.64
2022-10-23T06:43:02.495Z,51.83
2022-10-23T06:44:02.486Z,51.10
2022-10-23T06:45:06.276Z,53.02
2022-10-23T06:46:02.470Z,53.97
2022-10-23T06:47:02.475Z,48.53
2022-10-23T06:48:02.452Z,46.62
2022-10-23T06:49:02.446Z,50.06
2022-10-23T06:50:02.464Z,42.90
2022-10-23T06:51:02.432Z,44.83
2022-10-23T06:52:02.424Z,39.91
2022-10-23T06:53:02.420Z,49.27
2022-10-23T06:54:02.402Z,48.42
2022-10-23T06:55:02.434Z,54.28
2022-10-23T06:56:02.389Z,50.36
2022-10-23T06:57:02.391Z,51.24
2022-10-23T06:58:02.377Z,42.82
2022-10-23T06:59:02.370Z,49.99
2022-10-23T07:00:02.406Z,48.79
2022-10-23T07:01:02.503Z,49.86
2022-10-23T07:02:02.368Z,44.88
2022-10-23T07:03:02.355Z,46.81
2022-10-23T07:04:02.335Z,47.95
2022-10-23T07:05:02.357Z,43.51
2022-10-23T07:06:02.317Z,48.44
2022-10-23T07:07:02.315Z,51.24
2022-10-23T07:08:02.337Z,49.50
2022-10-23T07:09:02.290Z,47.81
2022-10-23T07:10:02.423Z,55.34
2022-10-23T07:11:02.284Z,58.67
2022-10-23T07:12:02.264Z,56.20
2022-10-23T07:13:02.268Z,56.25
2022-10-23T07:14:02.263Z,56.03
2022-10-23T07:15:02.282Z,53.73
2022-10-23T07:16:02.233Z,47.18
2022-10-23T07:17:02.238Z,55.51
2022-10-23T07:18:02.234Z,48.08
2022-10-23T07:19:02.222Z,49.40
2022-10-23T07:20:02.261Z,50.47
2022-10-23T07:21:02.206Z,49.20
2022-10-23T07:22:02.200Z,51.56
2022-10-23T07:23:02.196Z,49.49
2022-10-23T07:24:02.184Z,45.02
2022-10-23T07:25:02.200Z,54.77
2022-10-23T07:26:02.167Z,49.81
2022-10-23T07:27:02.160Z,46.99
2022-10-23T07:28:02.153Z,49.58
2022-10-23T07:29:02.138Z,56.50
2022-10-23T07:30:02.175Z,49.31
2022-10-23T07:31:02.134Z,45.08
2022-10-23T07:32:02.126Z,49.39
2022-10-23T07:33:02.111Z,44.51
2022-10-23T07:34:02.110Z,50.11
2022-10-23T07:35:02.192Z,51.24
2022-10-23T07:36:02.093Z,50.84
2022-10-23T07:37:02.081Z,51.97
2022-10-23T07:38:02.082Z,50.89
2022-10-23T07:39:02.094Z,54.80
2022-10-23T07:40:02.116Z,52.46
2022-10-23T07:41:02.051Z,50.60
2022-10-23T07:42:02.046Z,45.61
2022-10-23T07:43:02.048Z,52.99
2022-10-23T07:44:02.040Z,49.73
2022-10-23T07:45:02.051Z,50.79
2022-10-23T07:46:02.019Z,53.31
2022-10-23T07:47:02.013Z,48.91
2022-10-23T07:48:02.007Z,51.66
2022-10-23T07:49:01.993Z,48.37
2022-10-23T07:50:02.016Z,51.11
2022-10-23T07:51:01.987Z,51.93
2022-10-23T07:53:01.971Z,50.61
2022-10-23T07:54:01.955Z,49.62
2022-10-23T07:55:01.998Z,51.64
2022-10-23T07:56:01.965Z,47.79
2022-10-23T07:57:01.963Z,52.63
2022-10-23T07:58:01.927Z,52.75
2022-10-23T07:59:01.928Z,50.13
2022-10-23T08:00:01.931Z,52.17
2022-10-23T08:01:01.921Z,59.67
2022-10-23T08:02:02.051Z,49.07
2022-10-23T08:03:01.889Z,49.93
2022-10-23T08:04:01.875Z,52.60
2022-10-23T08:05:02.744Z,50.65
2022-10-23T08:06:01.866Z,51.35
2022-10-23T08:07:01.883Z,55.74
2022-10-23T08:08:01.843Z,55.26
2022-10-23T08:09:05.361Z,54.15
2022-10-23T08:10:01.836Z,52.09
2022-10-23T08:11:01.822Z,48.82
2022-10-23T08:12:01.863Z,46.23
2022-10-23T08:13:01.826Z,54.71
2022-10-23T08:14:01.807Z,48.14
2022-10-23T08:15:01.797Z,46.69
2022-10-23T08:16:01.788Z,52.57
2022-10-23T08:18:01.771Z,50.16
2022-10-23T08:19:01.761Z,50.59
2022-10-23T08:20:01.759Z,46.29
2022-10-23T08:21:01.748Z,52.81
2022-10-23T08:22:01.740Z,54.09
2022-10-23T08:23:01.764Z,51.85
2022-10-23T08:24:01.728Z,55.14
2022-10-23T08:25:01.719Z,48.85
2022-10-23T08:26:01.716Z,48.63
2022-10-23T08:27:01.700Z,55.07
2022-10-23T08:28:04.272Z,49.16
2022-10-23T08:29:02.693Z,51.31
2022-10-23T08:30:01.674Z,48.93
2022-10-23T08:31:01.675Z,49.07
2022-10-23T08:32:01.658Z,49.55
2022-10-23T08:33:01.682Z,53.59
2022-10-23T08:34:01.645Z,51.39
2022-10-23T08:35:01.643Z,47.52
2022-10-23T08:36:01.644Z,47.23
2022-10-23T08:37:01.619Z,50.61
2022-10-23T08:38:01.639Z,52.96
2022-10-23T08:39:01.611Z,55.43
2022-10-23T08:40:01.727Z,52.38
2022-10-23T08:41:01.589Z,48.50
2022-10-23T08:42:01.660Z,55.57
2022-10-23T08:43:01.604Z,48.43
2022-10-23T08:44:01.564Z,52.04
2022-10-23T08:45:01.586Z,48.73
2022-10-23T08:46:03.359Z,52.90
2022-10-23T08:47:01.547Z,47.82
2022-10-23T08:48:01.585Z,53.80
2022-10-23T08:49:01.539Z,50.54
2022-10-23T08:50:01.522Z,55.55
2022-10-23T08:51:01.512Z,51.24
2022-10-23T08:52:01.503Z,52.60
2022-10-23T08:53:01.528Z,55.79
2022-10-23T08:54:01.483Z,52.10
2022-10-23T08:55:01.477Z,51.05
2022-10-23T08:56:01.467Z,54.23
2022-10-23T08:57:01.456Z,54.12
2022-10-23T08:58:01.481Z,48.68
2022-10-23T08:59:01.450Z,54.91
2022-10-23T09:00:01.436Z,53.57
2022-10-23T09:01:01.543Z,51.98
2022-10-23T09:02:01.605Z,53.66
2022-10-23T09:03:01.433Z,52.62
2022-10-23T09:04:01.401Z,52.70
2022-10-23T09:05:01.405Z,50.78
2022-10-23T09:06:01.393Z,51.16
2022-10-23T09:07:01.419Z,46.45
2022-10-23T09:08:01.396Z,52.88
2022-10-23T09:09:01.371Z,57.87
2022-10-23T09:10:01.366Z,49.29
2022-10-23T09:11:01.352Z,53.44
2022-10-23T09:12:01.337Z,55.35
2022-10-23T09:13:01.366Z,55.42
2022-10-23T09:14:01.319Z,54.45
2022-10-23T09:15:01.314Z,51.78
2022-10-23T09:16:01.337Z,51.17
2022-10-23T09:17:01.374Z,51.21
2022-10-23T09:18:01.360Z,46.85
2022-10-23T09:19:01.285Z,53.85
2022-10-23T09:20:01.278Z,52.48
2022-10-23T09:21:01.270Z,52.02
2022-10-23T09:22:01.264Z,50.59
2022-10-23T09:23:01.286Z,50.91
2022-10-23T09:24:01.250Z,54.72
2022-10-23T09:25:01.246Z,49.63
2022-10-23T09:26:01.248Z,51.57
2022-10-23T09:27:01.286Z,49.84
2022-10-23T09:28:01.510Z,54.15
2022-10-23T09:29:01.220Z,53.72
2022-10-23T09:30:01.267Z,53.91
2022-10-23T09:31:01.270Z,54.08
2022-10-23T09:32:01.185Z,50.62
2022-10-23T09:33:01.218Z,51.53
2022-10-23T09:34:01.175Z,54.25
2022-10-23T09:35:01.174Z,50.03
2022-10-23T09:36:01.157Z,46.95
2022-10-23T09:37:01.161Z,54.66
2022-10-23T09:38:01.145Z,54.34
2022-10-23T09:39:01.158Z,50.27
2022-10-23T09:40:01.192Z,53.16
2022-10-23T09:41:01.133Z,53.66
2022-10-23T09:42:01.124Z,48.37
2022-10-23T09:43:01.122Z,52.58
2022-10-23T09:44:01.126Z,54.15
2022-10-23T09:45:01.100Z,54.67
2022-10-23T09:46:01.086Z,51.70
2022-10-23T09:47:01.098Z,55.18
2022-10-23T09:48:01.073Z,47.58
2022-10-23T09:49:03.568Z,55.40
2022-10-23T09:50:01.053Z,55.14
2022-10-23T09:51:01.039Z,53.53
2022-10-23T09:52:01.034Z,50.03
2022-10-23T09:53:01.028Z,54.61
2022-10-23T09:54:01.046Z,52.62
2022-10-23T09:55:01.015Z,57.14
2022-10-23T09:56:00.999Z,54.20
2022-10-23T09:57:00.996Z,51.41
2022-10-23T09:58:01.043Z,54.81
2022-10-23T09:59:01.017Z,54.56
2022-10-23T10:00:00.972Z,58.47
2022-10-23T10:01:01.100Z,47.68
2022-10-23T10:02:01.146Z,55.71
2022-10-23T10:03:00.969Z,54.24
2022-10-23T10:04:00.967Z,53.15
2022-10-23T10:05:00.930Z,55.65
2022-10-23T10:06:00.930Z,51.87
2022-10-23T10:07:00.993Z,46.70
2022-10-23T10:08:00.946Z,57.18
2022-10-23T10:09:00.939Z,54.47
2022-10-23T10:10:00.894Z,52.45
2022-10-23T10:11:00.913Z,53.28
2022-10-23T10:12:00.878Z,57.64
2022-10-23T10:13:00.885Z,52.12
2022-10-23T10:14:00.900Z,58.35
2022-10-23T10:15:00.865Z,56.24
2022-10-23T10:16:01.868Z,53.15
2022-10-23T10:17:00.837Z,53.76
2022-10-23T10:18:00.829Z,53.14
2022-10-23T10:19:00.867Z,55.39
2022-10-23T10:20:03.910Z,50.86
2022-10-23T10:21:02.807Z,48.27
2022-10-23T10:22:00.803Z,53.99
2022-10-23T10:23:00.898Z,51.78
2022-10-23T10:24:00.852Z,54.17
2022-10-23T10:25:00.781Z,56.86
2022-10-23T10:26:00.801Z,53.80
2022-10-23T10:27:00.762Z,52.29
2022-10-23T10:28:00.869Z,54.41
2022-10-23T10:29:00.870Z,59.05
2022-10-23T10:30:00.739Z,47.36
2022-10-23T10:31:00.737Z,50.93
2022-10-23T10:32:00.734Z,55.74
2022-10-23T10:33:00.770Z,59.22
2022-10-23T10:34:00.750Z,54.76
2022-10-23T10:35:00.734Z,48.84
2022-10-23T10:36:00.694Z,53.81
2022-10-23T10:37:00.682Z,53.70
2022-10-23T10:38:00.689Z,50.91
2022-10-23T10:39:00.807Z,54.28
2022-10-23T10:40:00.672Z,51.96
2022-10-23T10:41:00.646Z,50.84
2022-10-23T10:42:00.650Z,55.26
2022-10-23T10:43:00.631Z,54.27
2022-10-23T10:44:00.708Z,49.51
2022-10-23T10:45:00.610Z,51.68
2022-10-23T10:46:00.649Z,53.36
2022-10-23T10:47:00.593Z,58.71
2022-10-23T10:48:00.590Z,51.89
2022-10-23T10:49:00.645Z,58.05
2022-10-23T10:50:00.570Z,53.16
2022-10-23T10:51:00.579Z,53.91
2022-10-23T10:52:00.563Z,55.23
2022-10-23T10:53:00.605Z,54.61
2022-10-23T10:54:00.602Z,54.52
2022-10-23T10:55:00.538Z,49.74
2022-10-23T10:56:00.572Z,54.61
2022-10-23T10:57:00.517Z,57.53
2022-10-23T10:58:00.522Z,56.04
2022-10-23T10:59:00.533Z,56.21
2022-10-23T11:00:01.536Z,52.20
2022-10-23T11:01:00.592Z,55.87
2022-10-23T11:02:00.612Z,52.27
2022-10-23T11:03:00.469Z,53.73
2022-10-23T11:04:00.513Z,55.27
2022-10-23T11:05:00.461Z,49.41
2022-10-23T11:07:00.439Z,53.77
2022-10-23T11:08:00.544Z,52.76
2022-10-23T11:09:19.269Z,53.11
2022-10-23T11:10:02.408Z,48.92
2022-10-23T11:11:00.406Z,51.08
2022-10-23T11:12:00.433Z,52.49
2022-10-23T11:13:00.388Z,54.96
2022-10-23T11:14:00.409Z,57.07
2022-10-23T11:15:00.411Z,55.01
2022-10-23T11:16:00.382Z,55.53
2022-10-23T11:17:00.366Z,55.36
2022-10-23T11:18:00.336Z,50.42
2022-10-23T11:19:00.340Z,52.45
2022-10-23T11:20:00.371Z,54.34
2022-10-23T11:21:00.346Z,51.58
2022-10-23T11:22:00.319Z,52.89
2022-10-23T11:23:00.332Z,52.09
2022-10-23T11:24:00.348Z,49.29
2022-10-23T11:25:00.333Z,51.94
2022-10-23T11:26:00.289Z,54.37
2022-10-23T11:27:00.288Z,53.72
2022-10-23T11:28:03.565Z,52.81
2022-10-23T11:29:02.266Z,55.27
2022-10-23T11:30:00.274Z,54.34
2022-10-23T11:31:00.439Z,55.00
2022-10-23T11:32:00.237Z,53.93
2022-10-23T11:33:00.239Z,53.46
2022-10-23T11:34:00.210Z,50.38
2022-10-23T11:35:00.237Z,51.30
2022-10-23T11:36:00.215Z,57.14
2022-10-23T11:37:00.197Z,50.18
2022-10-23T11:38:00.183Z,53.03
2022-10-23T11:39:00.178Z,53.99
2022-10-23T11:40:00.201Z,52.63
2022-10-23T11:41:00.159Z,56.08
2022-10-23T11:42:00.156Z,52.91
2022-10-23T11:43:00.144Z,52.33
2022-10-23T11:44:00.139Z,55.15
2022-10-23T11:45:00.177Z,55.23
2022-10-23T11:46:00.129Z,51.74
2022-10-23T11:47:00.143Z,57.62
2022-10-23T11:48:00.117Z,51.21
2022-10-23T11:49:00.162Z,58.33
2022-10-23T11:50:00.140Z,53.94
2022-10-23T11:51:02.798Z,51.45
2022-10-23T11:52:01.078Z,57.90
2022-10-23T11:53:13.639Z,56.04
2022-10-23T11:54:02.090Z,54.83
2022-10-23T11:55:00.089Z,53.58
2022-10-23T11:56:00.048Z,49.86
2022-10-23T11:57:00.036Z,54.21
2022-10-23T11:58:00.160Z,53.93
2022-10-23T11:59:00.018Z,54.47
2022-10-23T12:00:00.025Z,51.66
2022-10-23T12:01:00.082Z,59.83
2022-10-23T12:02:00.056Z,53.55
2022-10-23T12:03:00.074Z,50.60
2022-10-23T12:03:59.986Z,53.85
2022-10-23T12:04:59.975Z,47.47
2022-10-23T12:06:00.012Z,52.63
2022-10-23T12:06:59.967Z,51.13
2022-10-23T12:07:59.951Z,52.18
2022-10-23T12:08:59.942Z,50.54
2022-10-23T12:09:59.946Z,55.49
2022-10-23T12:10:59.954Z,53.00
2022-10-23T12:11:59.919Z,53.68
2022-10-23T12:12:59.912Z,55.73
2022-10-23T12:13:59.972Z,52.82
2022-10-23T12:14:59.931Z,53.13
2022-10-23T12:16:00.993Z,54.16
2022-10-23T12:17:00.883Z,53.05
2022-10-23T12:17:59.873Z,54.46
2022-10-23T12:18:59.870Z,49.26
2022-10-23T12:19:59.896Z,52.20
2022-10-23T12:20:59.858Z,54.52
2022-10-23T12:21:59.843Z,50.50
2022-10-23T12:22:59.837Z,48.97
2022-10-23T12:23:59.832Z,54.24
2022-10-23T12:24:59.888Z,52.24
2022-10-23T12:25:59.821Z,56.25
2022-10-23T12:26:59.805Z,53.99
2022-10-23T12:27:59.808Z,58.30
2022-10-23T12:28:59.779Z,56.07
2022-10-23T12:30:00.819Z,53.44
2022-10-23T12:30:59.782Z,57.23
2022-10-23T12:31:59.771Z,56.25
2022-10-23T12:32:59.767Z,51.48
2022-10-23T12:33:59.762Z,55.32
2022-10-23T12:34:59.780Z,51.41
2022-10-23T12:35:59.736Z,53.20
2022-10-23T12:36:59.779Z,54.54
2022-10-23T12:37:59.728Z,51.77
2022-10-23T12:38:59.726Z,54.01
2022-10-23T12:39:59.709Z,51.89
2022-10-23T12:40:59.732Z,53.05
2022-10-23T12:41:59.697Z,55.03
2022-10-23T12:42:59.687Z,52.32
2022-10-23T12:43:59.681Z,50.60
2022-10-23T12:44:59.675Z,56.27
2022-10-23T12:45:59.691Z,54.57
2022-10-23T12:46:59.651Z,50.19
2022-10-23T12:47:59.644Z,52.91
2022-10-23T12:48:59.644Z,58.40
2022-10-23T12:49:59.634Z,49.40
2022-10-23T12:50:59.650Z,53.53
2022-10-23T12:51:59.644Z,53.80
2022-10-23T12:52:59.629Z,54.76
2022-10-23T12:53:59.601Z,54.40
2022-10-23T12:54:59.598Z,54.48
2022-10-23T12:56:59.600Z,55.17
2022-10-23T12:57:59.599Z,51.89
2022-10-23T12:58:59.573Z,56.30